Accueil
METAR-TAF:

METAR-TAF

Aéroports :

Aéroport de Murcie-San Javier

Murcie, Espagne

latitude: 37-47N, longitude: 000-48W, altitude: 5 m

Observation

Le bulletin a été fait il y a 18 minutes, à 06:30 UTC
Vent 4 kt de sud-ouest
Température 5°C
Humidité 100%
Pression 1025 hPa
Visibilité 10 km ou plus
pas de nuages en-dessous de 1500 mètres et pas de cumulonimbus.

METAR: LELC 270630Z 23004KT CAVOK 05/05 Q1025 NOSIG

Heure: 07:48 (06:48 UTC)

Prévision

Le bulletin a été fait il y a 1 heure et 48 minutes, à 05:00 UTC
Prévision valable du 27 à 06 UTC au 28 à 06 UTC
Vent 7 kt de ouest
Visibilité 10 km ou plus
pas de nuages en-dessous de 1500 mètres et pas de cumulonimbus.
Evoluant progressivement
du 27 à 11 UTC au 27 à 13 UTC
Vent 10 kt de sud-ouest
Evoluant progressivement
du 27 à 17 UTC au 27 à 19 UTC
Vent 5 kt de ouest/nord-ouest

TAF: LELC 270500Z 2706/2806 28007KT CAVOK TX17/2714Z TN07/2706Z BECMG 2711/2713 22010KT BECMG 2717/2719 30005KT

Observations et prévisions météorologiques de plus de 4000 aéroports (messages METAR et TAF).

Les stations disponibles sont représentées par des disques jaunes et rouges sur la carte.

Passer la souris dessus pour voir le nom de la station.

Cliquer dessus pour voir les observations et prévisions météorologiques.

Pour changer de carte: cliquez sur les boutons verts avec une croix noire pour zoomer, sur le bouton vert avec un tiret pour effectuer un zoom arrière, ou sur les flèches vertes pour les cartes adjacentes.


METAR-TAF: